sensor_id;sensor_type;location;lat;lon;timestamp;pressure;altitude;pressure_sealevel;temperature;humidity
71903;BME280;59778;50.310;18.780;2023-03-19T00:09:54;98912.44;;;4.34;52.54
71903;BME280;59778;50.310;18.780;2023-03-19T00:25:16;98906.38;;;4.49;51.54
71903;BME280;59778;50.310;18.780;2023-03-19T00:40:37;98902.59;;;4.24;52.29
71903;BME280;59778;50.310;18.780;2023-03-19T00:55:58;98892.66;;;3.90;55.52
71903;BME280;59778;50.310;18.780;2023-03-19T01:11:20;98894.34;;;3.26;58.14
71903;BME280;59778;50.310;18.780;2023-03-19T01:26:42;98899.34;;;3.12;58.63
71903;BME280;59778;50.310;18.780;2023-03-19T01:42:03;98894.41;;;2.98;60.19
71903;BME280;59778;50.310;18.780;2023-03-19T01:57:25;98900.78;;;2.87;61.85
71903;BME280;59778;50.310;18.780;2023-03-19T02:12:46;98905.19;;;2.59;64.37
71903;BME280;59778;50.310;18.780;2023-03-19T02:28:08;98913.50;;;2.47;65.04
71903;BME280;59778;50.310;18.780;2023-03-19T02:43:32;98923.53;;;2.35;66.84
71903;BME280;59778;50.310;18.780;2023-03-19T02:58:54;98927.44;;;2.21;69.14
71903;BME280;59778;50.310;18.780;2023-03-19T03:14:15;98938.44;;;2.09;69.74
71903;BME280;59778;50.310;18.780;2023-03-19T03:29:36;98925.53;;;1.83;71.80
71903;BME280;59778;50.310;18.780;2023-03-19T03:44:58;98924.97;;;1.80;72.74
71903;BME280;59778;50.310;18.780;2023-03-19T04:00:19;98924.91;;;1.61;74.49
71903;BME280;59778;50.310;18.780;2023-03-19T04:15:42;98926.44;;;1.54;75.26
71903;BME280;59778;50.310;18.780;2023-03-19T04:31:06;98930.56;;;1.37;76.69
71903;BME280;59778;50.310;18.780;2023-03-19T04:46:27;98922.41;;;1.38;76.17
71903;BME280;59778;50.310;18.780;2023-03-19T05:01:49;98915.03;;;1.31;77.01
71903;BME280;59778;50.310;18.780;2023-03-19T05:17:10;98925.03;;;1.29;78.76
71903;BME280;59778;50.310;18.780;2023-03-19T05:32:32;98937.56;;;1.59;77.58
71903;BME280;59778;50.310;18.780;2023-03-19T05:47:54;98932.66;;;2.23;75.74
71903;BME280;59778;50.310;18.780;2023-03-19T06:03:15;98937.09;;;2.72;76.38
71903;BME280;59778;50.310;18.780;2023-03-19T06:18:36;98945.41;;;3.81;74.20
71903;BME280;59778;50.310;18.780;2023-03-19T06:33:58;98949.22;;;5.04;69.56
71903;BME280;59778;50.310;18.780;2023-03-19T06:49:19;98944.41;;;6.27;65.86
71903;BME280;59778;50.310;18.780;2023-03-19T07:04:41;98947.56;;;7.37;64.02
71903;BME280;59778;50.310;18.780;2023-03-19T07:20:03;98940.06;;;7.63;61.71
71903;BME280;59778;50.310;18.780;2023-03-19T07:35:25;98947.41;;;8.48;59.67
71903;BME280;59778;50.310;18.780;2023-03-19T07:50:49;98935.44;;;9.48;55.51
71903;BME280;59778;50.310;18.780;2023-03-19T08:06:11;98934.84;;;10.20;53.60
71903;BME280;59778;50.310;18.780;2023-03-19T08:21:32;98929.56;;;10.83;50.70
71903;BME280;59778;50.310;18.780;2023-03-19T08:36:54;98920.09;;;11.43;48.84
71903;BME280;59778;50.310;18.780;2023-03-19T08:52:16;98919.03;;;12.34;46.57
71903;BME280;59778;50.310;18.780;2023-03-19T09:07:37;98927.28;;;12.60;45.28
71903;BME280;59778;50.310;18.780;2023-03-19T09:22:58;98916.34;;;13.28;43.45
71903;BME280;59778;50.310;18.780;2023-03-19T09:38:25;98902.94;;;13.65;41.69
71903;BME280;59778;50.310;18.780;2023-03-19T09:53:56;98892.66;;;13.41;42.39
71903;BME280;59778;50.310;18.780;2023-03-19T10:24:52;98879.69;;;14.21;40.21
71903;BME280;59778;50.310;18.780;2023-03-19T10:40:33;98875.69;;;14.23;40.85
71903;BME280;59778;50.310;18.780;2023-03-19T10:56:05;98850.78;;;15.14;39.23
71903;BME280;59778;50.310;18.780;2023-03-19T11:11:42;98815.13;;;16.24;37.78
71903;BME280;59778;50.310;18.780;2023-03-19T11:27:04;98794.50;;;16.22;36.40
71903;BME280;59778;50.310;18.780;2023-03-19T11:42:43;98774.00;;;16.42;35.41
71903;BME280;59778;50.310;18.780;2023-03-19T12:45:31;98724.19;;;17.22;33.07
71903;BME280;59778;50.310;18.780;2023-03-19T13:00:59;98720.34;;;17.34;32.60
71903;BME280;59778;50.310;18.780;2023-03-19T13:32:26;98721.69;;;17.20;33.73
71903;BME280;59778;50.310;18.780;2023-03-19T13:47:50;98699.94;;;17.54;33.54
71903;BME280;59778;50.310;18.780;2023-03-19T14:03:26;98673.69;;;17.34;33.56
71903;BME280;59778;50.310;18.780;2023-03-19T14:18:49;98666.19;;;17.07;33.98
71903;BME280;59778;50.310;18.780;2023-03-19T15:21:10;98662.94;;;16.63;34.24
71903;BME280;59778;50.310;18.780;2023-03-19T15:36:33;98660.81;;;16.24;34.80
71903;BME280;59778;50.310;18.780;2023-03-19T15:52:24;98652.56;;;15.82;35.52
71903;BME280;59778;50.310;18.780;2023-03-19T16:07:51;98664.22;;;15.78;35.25
71903;BME280;59778;50.310;18.780;2023-03-19T16:23:16;98677.56;;;15.56;36.26
71903;BME280;59778;50.310;18.780;2023-03-19T16:38:42;98689.63;;;15.48;36.82
71903;BME280;59778;50.310;18.780;2023-03-19T16:54:04;98692.72;;;14.73;40.67
71903;BME280;59778;50.310;18.780;2023-03-19T17:09:26;98721.31;;;13.63;43.19
71903;BME280;59778;50.310;18.780;2023-03-19T17:24:47;98725.66;;;12.73;44.92
71903;BME280;59778;50.310;18.780;2023-03-19T17:40:23;98729.31;;;11.87;48.26
71903;BME280;59778;50.310;18.780;2023-03-19T17:55:46;98744.69;;;11.26;49.85
71903;BME280;59778;50.310;18.780;2023-03-19T18:11:08;98745.84;;;10.55;51.75
71903;BME280;59778;50.310;18.780;2023-03-19T18:26:29;98764.75;;;10.06;53.54
71903;BME280;59778;50.310;18.780;2023-03-19T18:41:51;98767.47;;;9.55;55.67
71903;BME280;59778;50.310;18.780;2023-03-19T18:57:14;98767.69;;;9.24;58.80
71903;BME280;59778;50.310;18.780;2023-03-19T19:12:39;98785.06;;;8.78;61.13
71903;BME280;59778;50.310;18.780;2023-03-19T19:28:04;98784.34;;;8.46;62.64
71903;BME280;59778;50.310;18.780;2023-03-19T19:43:28;98776.94;;;8.18;63.61
71903;BME280;59778;50.310;18.780;2023-03-19T19:58:53;98782.31;;;7.95;64.74
71903;BME280;59778;50.310;18.780;2023-03-19T20:14:15;98784.94;;;7.80;65.92
71903;BME280;59778;50.310;18.780;2023-03-19T20:29:38;98782.13;;;7.96;65.05
71903;BME280;59778;50.310;18.780;2023-03-19T20:45:00;98792.63;;;7.91;65.67
71903;BME280;59778;50.310;18.780;2023-03-19T21:00:23;98783.50;;;7.62;66.22
71903;BME280;59778;50.310;18.780;2023-03-19T21:15:45;98790.69;;;7.77;64.90
71903;BME280;59778;50.310;18.780;2023-03-19T21:31:29;98796.84;;;7.63;66.29
71903;BME280;59778;50.310;18.780;2023-03-19T21:46:51;98790.53;;;7.71;65.04
71903;BME280;59778;50.310;18.780;2023-03-19T22:17:47;98784.44;;;7.77;65.11
71903;BME280;59778;50.310;18.780;2023-03-19T22:33:15;98783.31;;;7.63;65.38
71903;BME280;59778;50.310;18.780;2023-03-19T22:48:37;98771.34;;;7.27;66.41
71903;BME280;59778;50.310;18.780;2023-03-19T23:04:31;98766.31;;;7.07;67.51
71903;BME280;59778;50.310;18.780;2023-03-19T23:19:52;98773.31;;;6.61;68.68
71903;BME280;59778;50.310;18.780;2023-03-19T23:35:15;98776.88;;;6.54;69.31
71903;BME280;59778;50.310;18.780;2023-03-19T23:50:37;98776.38;;;6.26;71.25
